createdAt,value
2023-05-03T16:02:21.711Z,53.25
2023-05-03T16:03:53.632Z,53.00
2023-05-03T16:05:25.604Z,56.50
2023-05-03T16:06:58.238Z,49.50
2023-05-03T16:08:30.825Z,51.00
2023-05-03T16:10:02.849Z,46.00
2023-05-03T16:11:35.861Z,44.50
2023-05-03T16:13:09.681Z,46.00
2023-05-03T16:14:41.728Z,50.50
2023-05-03T16:16:13.788Z,47.50
2023-05-03T16:17:45.800Z,49.75
2023-05-03T16:19:17.753Z,48.75
2023-05-03T16:20:50.587Z,46.50
2023-05-03T16:22:22.464Z,47.00
2023-05-03T16:23:54.763Z,50.50
2023-05-03T16:25:26.712Z,47.25
2023-05-03T16:26:58.843Z,47.25
2023-05-03T16:28:30.742Z,47.25
2023-05-03T16:30:03.121Z,42.75
2023-05-03T16:31:35.445Z,44.75
2023-05-03T16:33:08.137Z,44.25
2023-05-03T16:34:40.042Z,44.50
2023-05-03T16:36:12.166Z,39.00
2023-05-03T16:37:44.059Z,39.75
2023-05-03T16:39:16.191Z,38.75
2023-05-03T16:40:48.117Z,37.25
2023-05-03T16:42:20.023Z,33.80
2023-05-03T16:43:51.989Z,33.20
2023-05-03T16:45:24.038Z,32.00
2023-05-03T16:46:56.128Z,32.20
2023-05-03T16:48:31.469Z,31.60
2023-05-03T16:50:04.608Z,30.40
2023-05-03T16:51:36.785Z,30.60
2023-05-03T16:53:08.659Z,29.80
2023-05-03T16:54:43.167Z,28.20
2023-05-03T16:56:15.731Z,31.20
2023-05-03T16:57:47.618Z,33.00
2023-05-03T16:59:19.694Z,34.60
2023-05-03T17:00:52.444Z,34.20
2023-05-03T17:02:24.576Z,33.80
2023-05-03T17:03:57.022Z,34.40
2023-05-03T17:05:33.336Z,34.20
2023-05-03T17:07:05.697Z,33.20
2023-05-03T17:08:37.865Z,33.20
2023-05-03T17:10:10.174Z,33.40
2023-05-03T17:11:42.215Z,32.20
2023-05-03T17:13:15.159Z,33.20
2023-05-03T17:14:47.598Z,34.40
2023-05-03T17:16:19.472Z,34.20
2023-05-03T17:17:52.223Z,36.50
2023-05-03T17:19:24.297Z,40.00
2023-05-03T17:21:02.250Z,42.25
2023-05-03T17:22:34.152Z,41.75
2023-05-03T17:24:06.361Z,43.00
2023-05-03T17:25:38.272Z,41.50
2023-05-03T17:27:10.149Z,45.50
2023-05-03T17:28:43.630Z,45.50
2023-05-03T17:30:15.871Z,46.00
2023-05-03T17:31:47.807Z,42.50
2023-05-03T17:33:19.675Z,49.75
2023-05-03T17:34:51.586Z,51.25
2023-05-03T17:36:23.581Z,50.25
2023-05-03T17:37:57.260Z,54.50
2023-05-03T17:39:29.198Z,56.50
2023-05-03T17:41:07.791Z,59.75
2023-05-03T17:42:39.703Z,59.00
2023-05-03T17:44:12.569Z,59.00
2023-05-03T17:45:45.053Z,64.00
2023-05-03T17:47:17.018Z,61.75
2023-05-03T17:48:48.963Z,59.50
2023-05-03T17:50:20.897Z,64.50
2023-05-03T17:51:52.821Z,72.80
2023-05-03T17:53:24.763Z,71.00
2023-05-03T17:54:57.167Z,63.00
2023-05-03T17:56:29.017Z,65.40
2023-05-03T17:58:00.867Z,66.60
2023-05-03T17:59:33.111Z,70.40
2023-05-03T18:01:05.464Z,66.60
2023-05-03T18:02:37.464Z,66.00
2023-05-03T18:04:10.412Z,65.00
2023-05-03T18:05:45.266Z,61.00
2023-05-03T18:07:17.130Z,61.00
2023-05-03T18:08:48.983Z,73.00
2023-05-03T18:10:20.977Z,75.20
2023-05-03T18:11:54.626Z,76.80
2023-05-03T18:13:27.093Z,75.00
2023-05-03T18:15:01.869Z,78.00
2023-05-03T18:16:33.752Z,73.40
2023-05-03T18:18:05.807Z,78.60
2023-05-03T18:19:37.790Z,74.00
2023-05-03T18:21:11.829Z,76.80
2023-05-03T18:22:43.764Z,72.20
2023-05-03T18:24:16.130Z,78.80
2023-05-03T18:25:48.088Z,79.20
2023-05-03T18:27:22.145Z,75.00
2023-05-03T18:28:54.068Z,77.20
2023-05-03T18:30:29.461Z,77.00
2023-05-03T18:32:01.501Z,77.60
2023-05-03T18:33:34.138Z,75.60
2023-05-03T18:35:08.019Z,76.00
2023-05-03T18:36:39.915Z,74.20
2023-05-03T18:38:11.770Z,77.40
2023-05-03T18:39:44.365Z,72.60
2023-05-03T18:41:17.041Z,75.60
2023-05-03T18:42:49.002Z,72.00
2023-05-03T18:44:24.058Z,72.80
2023-05-03T18:45:56.067Z,70.40
2023-05-03T18:47:28.240Z,67.40
2023-05-03T18:49:03.346Z,70.80
2023-05-03T18:50:36.268Z,69.40
2023-05-03T18:52:08.154Z,66.50
2023-05-03T18:53:40.054Z,62.50
2023-05-03T18:55:12.072Z,69.75
2023-05-03T18:56:44.060Z,137.67
2023-05-03T18:58:16.001Z,211.50
2023-05-03T18:59:59.524Z,172.25
2023-05-03T19:01:33.736Z,154.33
2023-05-03T19:03:06.473Z,127.50
2023-05-03T19:04:38.578Z,113.75
2023-05-03T19:06:11.534Z,100.25
2023-05-03T19:07:46.830Z,102.25
2023-05-03T19:09:18.884Z,94.25
2023-05-03T19:10:50.808Z,92.25
2023-05-03T19:12:23.058Z,94.00
2023-05-03T19:13:54.990Z,89.50
2023-05-03T19:15:27.368Z,89.75
2023-05-03T19:16:59.482Z,84.50
2023-05-03T19:18:32.089Z,78.75
2023-05-03T19:20:05.522Z,84.00
2023-05-03T19:21:42.258Z,83.50
2023-05-03T19:23:14.111Z,82.75
2023-05-03T19:24:46.178Z,77.20
2023-05-03T19:26:18.055Z,75.00
2023-05-03T19:27:49.984Z,72.00
2023-05-03T19:29:22.005Z,72.40
2023-05-03T19:30:54.396Z,73.20
2023-05-03T19:32:26.656Z,69.20
2023-05-03T19:33:58.837Z,70.20
2023-05-03T19:35:30.725Z,64.00
2023-05-03T19:37:02.629Z,65.50
2023-05-03T19:38:36.554Z,68.75
2023-05-03T19:40:09.310Z,70.00
2023-05-03T19:41:41.257Z,59.25
2023-05-03T19:43:13.180Z,62.75
2023-05-03T19:44:45.114Z,57.75
2023-05-03T19:46:19.890Z,71.60
2023-05-03T19:47:51.939Z,67.50
2023-05-03T19:49:24.873Z,72.20
2023-05-03T19:50:56.906Z,70.20
2023-05-03T19:52:28.775Z,74.60
2023-05-03T19:54:03.413Z,75.80
2023-05-03T19:55:35.398Z,73.80
2023-05-03T19:57:07.796Z,70.00
2023-05-03T19:58:40.128Z,73.00
2023-05-03T20:00:14.448Z,72.80
2023-05-03T20:01:46.432Z,63.60
2023-05-03T20:03:18.746Z,65.40
2023-05-03T20:04:50.826Z,71.80
2023-05-03T20:06:22.780Z,69.00
2023-05-03T20:07:54.788Z,64.40
2023-05-03T20:09:26.698Z,66.00
2023-05-03T20:10:58.877Z,72.80
2023-05-03T20:12:30.875Z,70.60
2023-05-03T20:14:02.763Z,63.50
2023-05-03T20:15:35.992Z,66.50
2023-05-03T20:17:08.114Z,64.00
2023-05-03T20:18:40.302Z,63.50
2023-05-03T20:20:13.285Z,61.80
2023-05-03T20:21:45.230Z,72.60
2023-05-03T20:23:17.436Z,63.75
2023-05-03T20:24:51.812Z,58.25
2023-05-03T20:26:24.623Z,56.00
2023-05-03T20:27:56.540Z,52.50
2023-05-03T20:29:28.430Z,48.25
2023-05-03T20:31:00.284Z,81.75
2023-05-03T20:32:32.301Z,183.00
2023-05-03T20:34:04.276Z,89.00
2023-05-03T20:35:39.195Z,97.50
2023-05-03T20:37:11.094Z,92.50
2023-05-03T20:38:43.125Z,85.00
2023-05-03T20:40:15.847Z,87.00
2023-05-03T20:41:47.789Z,78.00
2023-05-03T20:43:19.896Z,74.75
2023-05-03T20:44:52.251Z,81.50
2023-05-03T20:46:24.170Z,75.50
2023-05-03T20:47:56.516Z,79.80
2023-05-03T20:49:28.478Z,78.75
2023-05-03T20:51:00.962Z,77.20
2023-05-03T20:52:33.203Z,75.20
2023-05-03T20:54:05.102Z,80.40
2023-05-03T20:55:38.739Z,79.00
2023-05-03T20:57:12.625Z,70.40
2023-05-03T20:58:45.475Z,73.40
2023-05-03T21:00:17.762Z,67.60
2023-05-03T21:01:49.679Z,74.40
2023-05-03T21:03:23.748Z,67.80
2023-05-03T21:04:55.788Z,73.20
2023-05-03T21:06:27.633Z,71.60
2023-05-03T21:07:59.524Z,70.40
2023-05-03T21:09:31.674Z,67.00
2023-05-03T21:11:04.391Z,67.00
2023-05-03T21:12:36.277Z,64.25
2023-05-03T21:14:08.771Z,61.50
2023-05-03T21:15:40.785Z,63.50
2023-05-03T21:17:12.675Z,64.25
2023-05-03T21:18:44.754Z,63.25
2023-05-03T21:20:16.822Z,80.40
2023-05-03T21:21:48.753Z,205.25
2023-05-03T21:23:20.669Z,101.25
2023-05-03T21:24:52.642Z,91.00
2023-05-03T21:26:24.510Z,103.25
2023-05-03T21:27:56.498Z,106.00
2023-05-03T21:29:28.684Z,96.75
2023-05-03T21:31:00.528Z,87.25
2023-05-03T21:32:33.610Z,85.75
2023-05-03T21:34:05.902Z,83.25
2023-05-03T21:35:37.786Z,91.75
2023-05-03T21:37:09.753Z,88.50
2023-05-03T21:38:42.088Z,81.00
2023-05-03T21:40:15.266Z,78.75
2023-05-03T21:41:47.366Z,83.75
2023-05-03T21:43:19.917Z,80.75
2023-05-03T21:44:51.951Z,79.00
2023-05-03T21:46:23.935Z,79.50
2023-05-03T21:47:56.014Z,75.25
2023-05-03T21:49:27.935Z,81.50
2023-05-03T21:50:59.780Z,80.25
2023-05-03T21:52:33.185Z,73.40
2023-05-03T21:54:05.150Z,70.40
2023-05-03T21:55:37.031Z,74.00
2023-05-03T21:57:09.149Z,72.40
2023-05-03T21:58:46.859Z,77.00
2023-05-03T22:00:20.962Z,74.40
2023-05-03T22:01:53.002Z,70.60
2023-05-03T22:03:24.968Z,70.40
2023-05-03T22:04:56.959Z,66.20
2023-05-03T22:06:28.857Z,70.60
2023-05-03T22:08:01.613Z,76.00
2023-05-03T22:09:33.626Z,68.40
2023-05-03T22:11:07.115Z,67.25
2023-05-03T22:12:39.451Z,78.75
2023-05-03T22:14:11.378Z,70.50
2023-05-03T22:15:43.266Z,80.50
2023-05-03T22:17:15.208Z,72.75
2023-05-03T22:18:47.136Z,80.00
2023-05-03T22:20:19.006Z,75.75
2023-05-03T22:21:50.854Z,78.25
2023-05-03T22:23:22.911Z,79.00
2023-05-03T22:24:55.368Z,76.25
2023-05-03T22:26:27.513Z,77.50
2023-05-03T22:27:59.688Z,80.00
2023-05-03T22:29:31.739Z,73.00
2023-05-03T22:31:03.643Z,77.25
2023-05-03T22:32:35.744Z,74.20
2023-05-03T22:34:07.613Z,75.40
